Terminal Aerodrome Forecast
Issued by NWS

Current Version | Previous Version | Graphics & Text | Print | Product List | Glossary On
Versions: 1 2 3 4 5 6 7 8 9 10 11 12 13 14 15 16 17 18 19 20 21 22 23 24 25 26 27 28
055
FTUS41 KILN 291128
TAFLUK
TAF
KLUK 291128Z 2912/3012 00000KT 6SM BR SCT140
     FM291300 04005KT P6SM SCT040
     FM291800 06006KT P6SM VCTS BKN040CB
     FM300000 VRB03KT P6SM SCT080
     FM300600 00000KT 2SM BR SCT080=

USA.gov is the U.S. government's official web portal to all federal, state and local government web resources and services.